createdAt,value
2023-04-21T00:00:29.512Z,0.97
2023-04-21T00:01:29.511Z,0.96
2023-04-21T00:03:29.603Z,0.97
2023-04-21T00:04:29.711Z,0.95
2023-04-21T00:05:29.686Z,0.96
2023-04-21T00:06:29.441Z,0.98
2023-04-21T00:07:29.445Z,0.95
2023-04-21T00:08:29.427Z,0.96
2023-04-21T00:09:29.418Z,0.95
2023-04-21T00:10:29.443Z,0.95
2023-04-21T00:11:29.404Z,0.94
2023-04-21T00:12:29.379Z,0.97
2023-04-21T00:13:29.358Z,0.96
2023-04-21T00:14:29.349Z,0.94
2023-04-21T00:15:29.347Z,0.94
2023-04-21T00:16:29.392Z,0.95
2023-04-21T00:17:29.400Z,0.95
2023-04-21T00:18:29.369Z,0.93
2023-04-21T00:19:29.308Z,0.96
2023-04-21T00:20:29.303Z,0.94
2023-04-21T00:21:29.298Z,0.93
2023-04-21T00:22:29.292Z,0.93
2023-04-21T00:23:29.286Z,0.93
2023-04-21T00:24:29.275Z,0.93
2023-04-21T00:25:29.268Z,0.93
2023-04-21T00:26:29.272Z,0.94
2023-04-21T00:27:29.252Z,0.92
2023-04-21T00:28:29.256Z,0.92
2023-04-21T00:29:29.259Z,0.94
2023-04-21T00:30:29.248Z,0.92
2023-04-21T00:31:29.258Z,0.92
2023-04-21T00:32:29.280Z,0.94
2023-04-21T00:33:29.235Z,0.93
2023-04-21T00:34:29.225Z,0.93
2023-04-21T00:35:29.224Z,0.91
2023-04-21T00:36:29.221Z,0.94
2023-04-21T00:37:29.220Z,0.92
2023-04-21T00:38:29.236Z,0.93
2023-04-21T00:39:29.209Z,0.94
2023-04-21T00:40:29.207Z,0.91
2023-04-21T00:41:29.197Z,0.92
2023-04-21T00:42:29.187Z,0.91
2023-04-21T00:43:29.193Z,0.90
2023-04-21T00:44:29.191Z,0.92
2023-04-21T00:45:29.179Z,0.90
2023-04-21T00:46:29.207Z,0.92
2023-04-21T00:47:29.237Z,0.91
2023-04-21T00:48:29.177Z,0.89
2023-04-21T00:49:29.160Z,0.93
2023-04-21T00:50:29.160Z,0.90
2023-04-21T00:51:29.157Z,0.90
2023-04-21T00:52:29.150Z,0.90
2023-04-21T00:53:29.181Z,0.91
2023-04-21T00:54:29.199Z,0.90
2023-04-21T00:55:29.232Z,0.91
2023-04-21T00:56:29.259Z,0.91
2023-04-21T00:57:29.290Z,0.90
2023-04-21T00:58:29.319Z,0.89
2023-04-21T00:59:29.344Z,0.89
2023-04-21T01:00:29.439Z,0.90
2023-04-21T01:01:29.436Z,0.89
2023-04-21T01:02:29.534Z,0.88
2023-04-21T01:03:29.649Z,0.89
2023-04-21T01:04:29.469Z,0.90
2023-04-21T01:05:29.518Z,0.88
2023-04-21T01:06:29.606Z,0.91
2023-04-21T01:07:29.560Z,0.90
2023-04-21T01:08:29.582Z,0.88
2023-04-21T01:09:29.607Z,0.91
2023-04-21T01:10:29.637Z,0.89
2023-04-21T01:11:29.680Z,0.90
2023-04-21T01:12:29.698Z,0.89
2023-04-21T01:13:29.735Z,0.89
2023-04-21T01:14:29.754Z,0.87
2023-04-21T01:15:29.781Z,0.87
2023-04-21T01:16:29.894Z,0.88
2023-04-21T01:17:29.873Z,0.87
2023-04-21T01:18:29.940Z,0.87
2023-04-21T01:19:29.899Z,0.87
2023-04-21T01:20:29.939Z,0.86
2023-04-21T01:21:29.963Z,0.89
2023-04-21T01:22:29.984Z,0.86
2023-04-21T01:23:30.034Z,0.86
2023-04-21T01:24:30.055Z,0.87
2023-04-21T01:25:30.078Z,0.90
2023-04-21T01:26:30.112Z,0.86
2023-04-21T01:27:30.131Z,0.87
2023-04-21T01:28:30.166Z,0.88
2023-04-21T01:29:30.198Z,0.85
2023-04-21T01:30:30.208Z,0.86
2023-04-21T01:31:30.276Z,0.89
2023-04-21T01:32:30.447Z,0.87
2023-04-21T01:33:30.287Z,0.86
2023-04-21T01:34:30.321Z,0.86
2023-04-21T01:35:30.347Z,0.86
2023-04-21T01:36:30.588Z,0.86
2023-04-21T01:37:30.457Z,0.85
2023-04-21T01:38:30.435Z,0.85
2023-04-21T01:39:30.454Z,0.87
2023-04-21T01:40:30.469Z,0.83
2023-04-21T01:41:30.531Z,0.85
2023-04-21T01:42:30.526Z,0.85
2023-04-21T01:43:30.550Z,0.84
2023-04-21T01:44:30.565Z,0.84
2023-04-21T01:45:30.587Z,0.82
2023-04-21T01:46:30.625Z,0.82
2023-04-21T01:47:30.654Z,0.83
2023-04-21T01:48:30.651Z,0.85
2023-04-21T01:49:30.666Z,0.82
2023-04-21T01:50:30.693Z,0.84
2023-04-21T01:51:30.720Z,0.83
2023-04-21T01:52:30.729Z,0.83
2023-04-21T01:53:30.753Z,0.84
2023-04-21T01:54:30.768Z,0.83
2023-04-21T01:55:30.802Z,0.82
2023-04-21T01:56:30.883Z,0.83
2023-04-21T01:57:30.838Z,0.83
2023-04-21T01:58:30.850Z,0.82
2023-04-21T01:59:30.872Z,0.83
2023-04-21T02:00:30.909Z,0.83
2023-04-21T02:01:30.965Z,0.82
2023-04-21T02:02:31.038Z,0.83
2023-04-21T02:03:31.242Z,0.82
2023-04-21T02:04:31.068Z,0.83
2023-04-21T02:05:31.010Z,0.84
2023-04-21T02:06:31.026Z,0.80
2023-04-21T02:07:31.053Z,0.81
2023-04-21T02:08:31.074Z,0.81
2023-04-21T02:09:31.096Z,0.80
2023-04-21T02:10:31.113Z,0.81
2023-04-21T02:11:31.128Z,0.80
2023-04-21T02:12:31.154Z,0.81
2023-04-21T02:13:31.173Z,0.80
2023-04-21T02:14:31.192Z,0.83
2023-04-21T02:15:31.242Z,0.81
2023-04-21T02:16:31.312Z,0.79
2023-04-21T02:17:31.267Z,0.81
2023-04-21T02:18:31.254Z,0.80
2023-04-21T02:19:31.289Z,0.79
2023-04-21T02:20:31.289Z,0.79
2023-04-21T02:21:31.309Z,0.80
2023-04-21T02:22:31.323Z,0.79
2023-04-21T02:23:31.329Z,0.81
2023-04-21T02:24:31.352Z,0.80
2023-04-21T02:25:31.367Z,0.79
2023-04-21T02:26:31.400Z,0.79
2023-04-21T02:27:31.403Z,0.81
2023-04-21T02:28:31.429Z,0.79
2023-04-21T02:29:31.435Z,0.79
2023-04-21T02:30:31.456Z,0.78
2023-04-21T02:31:31.511Z,0.77
2023-04-21T02:32:31.623Z,0.80
2023-04-21T02:33:31.558Z,0.79
2023-04-21T02:34:31.536Z,0.78
2023-04-21T02:35:31.549Z,0.77
2023-04-21T02:36:31.566Z,0.80
2023-04-21T02:37:31.588Z,0.77
2023-04-21T02:38:31.608Z,0.80
2023-04-21T02:39:31.629Z,0.76
2023-04-21T02:40:31.645Z,0.78
2023-04-21T02:41:31.674Z,0.76
2023-04-21T02:42:31.683Z,0.77
2023-04-21T02:43:31.695Z,0.78
2023-04-21T02:44:31.717Z,0.77
2023-04-21T02:45:31.748Z,0.76
2023-04-21T02:46:31.807Z,0.76
2023-04-21T02:47:31.827Z,0.78
2023-04-21T02:48:31.803Z,0.76
2023-04-21T02:49:31.820Z,0.76
2023-04-21T02:50:31.840Z,0.77
2023-04-21T02:51:31.842Z,0.78
2023-04-21T02:52:31.865Z,0.76
2023-04-21T02:53:31.881Z,0.78
2023-04-21T02:54:31.910Z,0.76
2023-04-21T02:55:31.931Z,0.75
2023-04-21T02:56:31.967Z,0.75
2023-04-21T02:57:31.971Z,0.75
2023-04-21T02:58:31.971Z,0.78
2023-04-21T02:59:31.999Z,0.76
2023-04-21T03:00:32.043Z,0.75
2023-04-21T03:01:32.035Z,0.78
2023-04-21T03:02:32.173Z,0.75
2023-04-21T03:03:32.184Z,0.76
2023-04-21T03:04:32.196Z,0.76
2023-04-21T03:05:32.094Z,0.75
2023-04-21T03:06:32.115Z,0.75
2023-04-21T03:07:32.137Z,0.78
2023-04-21T03:08:32.158Z,0.76
2023-04-21T03:09:32.180Z,0.75
2023-04-21T03:10:32.191Z,0.75
2023-04-21T03:11:32.210Z,0.76
2023-04-21T03:12:32.234Z,0.75
2023-04-21T03:13:32.238Z,0.74
2023-04-21T03:14:32.254Z,0.75
2023-04-21T03:15:32.269Z,0.75
2023-04-21T03:16:32.329Z,0.75
2023-04-21T03:17:33.255Z,0.75
2023-04-21T03:18:32.323Z,0.74
2023-04-21T03:19:32.325Z,0.75
2023-04-21T03:20:32.335Z,0.76
2023-04-21T03:21:32.370Z,0.74
2023-04-21T03:22:32.385Z,0.74
2023-04-21T03:23:32.405Z,0.75
2023-04-21T03:24:32.458Z,0.74
2023-04-21T03:25:32.447Z,0.75
2023-04-21T03:26:32.465Z,0.73
2023-04-21T03:27:32.474Z,0.74
2023-04-21T03:28:32.493Z,0.74
2023-04-21T03:29:32.508Z,0.73
2023-04-21T03:30:32.521Z,0.74
2023-04-21T03:31:32.565Z,0.74
2023-04-21T03:32:32.562Z,0.74
2023-04-21T03:33:32.564Z,0.75
2023-04-21T03:34:32.578Z,0.73
2023-04-21T03:35:32.582Z,0.73
2023-04-21T03:36:32.611Z,0.72
2023-04-21T03:37:32.607Z,0.72
2023-04-21T03:38:32.619Z,0.74
2023-04-21T03:39:32.639Z,0.73
2023-04-21T03:40:32.652Z,0.74
2023-04-21T03:41:32.672Z,0.73
2023-04-21T03:42:32.695Z,0.75
2023-04-21T03:43:32.705Z,0.72
2023-04-21T03:44:32.729Z,0.74
2023-04-21T03:45:32.759Z,0.74
2023-04-21T03:46:32.847Z,0.72
2023-04-21T03:47:32.846Z,0.72
2023-04-21T03:48:32.787Z,0.71
2023-04-21T03:49:32.807Z,0.72
2023-04-21T03:50:32.816Z,0.72
2023-04-21T03:51:32.823Z,0.72
2023-04-21T03:52:32.843Z,0.72
2023-04-21T03:53:32.855Z,0.72
2023-04-21T03:54:32.881Z,0.71
2023-04-21T03:55:32.904Z,0.73
2023-04-21T03:56:32.930Z,0.71
2023-04-21T03:57:32.933Z,0.71
2023-04-21T03:58:32.953Z,0.73
2023-04-21T03:59:32.962Z,0.72
2023-04-21T04:00:32.982Z,0.71
2023-04-21T04:01:33.007Z,0.71
2023-04-21T04:02:33.116Z,0.71
2023-04-21T04:03:33.140Z,0.72
2023-04-21T04:04:33.138Z,0.70
2023-04-21T04:05:33.120Z,0.72
2023-04-21T04:06:33.199Z,0.72
2023-04-21T04:07:33.127Z,0.71
2023-04-21T04:08:33.158Z,0.73
2023-04-21T04:09:33.188Z,0.70
2023-04-21T04:10:33.192Z,0.70
2023-04-21T04:11:33.251Z,0.70
2023-04-21T04:12:33.249Z,0.71
2023-04-21T04:13:33.270Z,0.70
2023-04-21T04:14:33.297Z,0.71
2023-04-21T04:15:33.315Z,0.69
2023-04-21T04:16:33.420Z,0.71
2023-04-21T04:17:33.408Z,0.69
2023-04-21T04:18:33.364Z,0.70
2023-04-21T04:19:33.386Z,0.71
2023-04-21T04:20:33.406Z,0.71
2023-04-21T04:21:33.442Z,0.71
2023-04-21T04:22:33.460Z,0.70
2023-04-21T04:23:33.479Z,0.69
2023-04-21T04:24:33.503Z,0.70
2023-04-21T04:25:33.521Z,0.69
2023-04-21T04:26:33.549Z,0.70
2023-04-21T04:27:33.563Z,0.70
2023-04-21T04:28:33.609Z,0.70
2023-04-21T04:29:33.590Z,0.71
2023-04-21T04:30:33.607Z,0.69
2023-04-21T04:31:33.669Z,0.68
2023-04-21T04:32:33.680Z,0.70
2023-04-21T04:33:33.681Z,0.69
2023-04-21T04:34:33.689Z,0.68
2023-04-21T04:35:33.701Z,0.69
2023-04-21T04:36:33.722Z,0.69
2023-04-21T04:37:33.746Z,0.70
2023-04-21T04:38:33.766Z,0.71
2023-04-21T04:39:33.829Z,0.69
2023-04-21T04:40:33.824Z,0.68
2023-04-21T04:41:33.843Z,0.69
2023-04-21T04:42:33.851Z,0.68
2023-04-21T04:43:33.864Z,0.68
2023-04-21T04:44:33.884Z,0.69
2023-04-21T04:45:33.910Z,0.68
2023-04-21T04:46:33.969Z,0.67
2023-04-21T04:47:33.967Z,0.69
2023-04-21T04:48:33.969Z,0.68
2023-04-21T04:49:33.987Z,0.67
2023-04-21T04:50:34.002Z,0.67
2023-04-21T04:51:34.022Z,0.68
2023-04-21T04:52:34.072Z,0.67
2023-04-21T04:53:34.075Z,0.68
2023-04-21T04:54:34.090Z,0.67
2023-04-21T04:55:34.109Z,0.67
2023-04-21T04:56:34.127Z,0.68
2023-04-21T04:57:34.147Z,0.66
2023-04-21T04:58:34.166Z,0.67
2023-04-21T04:59:34.182Z,0.68
2023-04-21T05:00:34.207Z,0.66
2023-04-21T05:01:34.312Z,0.68
2023-04-21T05:02:34.551Z,0.66
2023-04-21T05:03:34.551Z,0.68
2023-04-21T05:04:34.354Z,0.65
2023-04-21T05:05:34.285Z,0.65
2023-04-21T05:06:34.295Z,0.66
2023-04-21T05:07:34.311Z,0.65
2023-04-21T05:08:34.326Z,0.65
2023-04-21T05:09:34.336Z,0.68
2023-04-21T05:10:34.352Z,0.66
2023-04-21T05:11:34.358Z,0.65
2023-04-21T05:12:34.377Z,0.65
2023-04-21T05:13:34.402Z,0.65
2023-04-21T05:14:34.399Z,0.66
2023-04-21T05:15:34.426Z,0.64
2023-04-21T05:16:34.501Z,0.65
2023-04-21T05:17:34.463Z,0.65
2023-04-21T05:18:34.478Z,0.65
2023-04-21T05:19:34.470Z,0.64
2023-04-21T05:20:34.477Z,0.65
2023-04-21T05:21:34.481Z,0.67
2023-04-21T05:22:34.498Z,0.69
2023-04-21T05:23:34.515Z,0.65
2023-04-21T05:24:34.507Z,0.64
2023-04-21T05:25:34.505Z,0.64
2023-04-21T05:26:34.494Z,0.67
2023-04-21T05:27:34.494Z,0.72
2023-04-21T05:28:34.486Z,0.75
2023-04-21T05:29:34.526Z,0.72
2023-04-21T05:30:34.497Z,0.70
2023-04-21T05:31:34.480Z,0.71
2023-04-21T05:32:34.575Z,0.73
2023-04-21T05:33:34.432Z,0.71
2023-04-21T05:34:35.277Z,0.71
2023-04-21T05:35:36.550Z,0.71
2023-04-21T05:36:34.388Z,0.74
2023-04-21T05:37:34.387Z,0.72
2023-04-21T05:38:34.346Z,0.73
2023-04-21T05:39:34.334Z,0.72
2023-04-21T05:40:34.330Z,0.72
2023-04-21T05:41:34.308Z,0.72
2023-04-21T05:42:34.277Z,0.72
2023-04-21T05:43:34.295Z,0.72
2023-04-21T05:44:34.235Z,0.71
2023-04-21T05:45:34.217Z,0.71
2023-04-21T05:46:34.379Z,0.70
2023-04-21T05:47:34.209Z,0.72
2023-04-21T05:48:34.698Z,0.70
2023-04-21T05:49:34.144Z,0.71
2023-04-21T05:50:34.159Z,0.70
2023-04-21T05:51:34.113Z,0.72
2023-04-21T05:52:34.109Z,0.71
2023-04-21T05:53:34.074Z,0.71
2023-04-21T05:54:34.062Z,0.70
2023-04-21T05:55:34.041Z,0.70
2023-04-21T05:56:34.036Z,0.70
2023-04-21T05:57:34.013Z,0.71
2023-04-21T05:58:33.988Z,0.71
2023-04-21T05:59:33.962Z,0.70
2023-04-21T06:00:33.962Z,0.70
2023-04-21T06:01:33.963Z,0.70
2023-04-21T06:02:34.035Z,0.70
2023-04-21T06:03:34.082Z,0.71
2023-04-21T06:04:34.010Z,0.70
2023-04-21T06:05:33.938Z,0.71
2023-04-21T06:06:34.634Z,0.71
2023-04-21T06:07:33.873Z,0.70
2023-04-21T06:08:33.857Z,0.69
2023-04-21T06:09:33.830Z,0.71
2023-04-21T06:10:33.830Z,0.71
2023-04-21T06:11:33.793Z,0.69
2023-04-21T06:12:33.787Z,0.68
2023-04-21T06:13:34.291Z,0.69
2023-04-21T06:14:33.760Z,0.70
2023-04-21T06:15:33.770Z,0.70
2023-04-21T06:16:33.760Z,0.69
2023-04-21T06:17:33.774Z,0.68
2023-04-21T06:18:33.701Z,0.67
2023-04-21T06:19:33.683Z,0.67
2023-04-21T06:20:33.665Z,0.67
2023-04-21T06:21:34.127Z,0.66
2023-04-21T06:22:33.638Z,0.66
2023-04-21T06:23:33.623Z,0.65
2023-04-21T06:24:33.611Z,0.65
2023-04-21T06:25:33.597Z,0.69
2023-04-21T06:26:33.574Z,0.70
2023-04-21T06:27:33.552Z,0.70
2023-04-21T06:28:33.538Z,0.73
2023-04-21T06:29:33.505Z,0.75
2023-04-21T06:30:33.546Z,0.75
2023-04-21T06:31:33.525Z,0.81
2023-04-21T06:32:33.577Z,0.83
2023-04-21T06:33:34.132Z,0.89
2023-04-21T06:34:33.585Z,0.92
2023-04-21T06:35:33.394Z,1.00
2023-04-21T06:36:33.365Z,1.04
2023-04-21T06:37:33.336Z,1.11
2023-04-21T06:38:33.325Z,1.18
2023-04-21T06:39:33.296Z,1.17
2023-04-21T06:40:33.267Z,1.23
2023-04-21T06:41:34.258Z,1.24
2023-04-21T06:42:33.220Z,1.25
2023-04-21T06:43:33.182Z,1.31
2023-04-21T06:44:33.169Z,1.42
2023-04-21T06:45:33.120Z,1.51
2023-04-21T06:46:33.105Z,1.52
2023-04-21T06:47:33.091Z,1.53
2023-04-21T06:48:33.076Z,1.59
2023-04-21T06:49:32.998Z,1.66
2023-04-21T06:50:32.963Z,1.72
2023-04-21T06:51:32.962Z,1.93
2023-04-21T06:52:32.899Z,2.22
2023-04-21T06:53:32.880Z,2.30
2023-04-21T06:54:32.828Z,2.30
2023-04-21T06:55:32.790Z,2.34
2023-04-21T06:56:32.761Z,2.45
2023-04-21T06:57:33.475Z,2.66
2023-04-21T06:58:32.684Z,2.99
2023-04-21T06:59:32.671Z,3.12
2023-04-21T07:00:32.625Z,3.23
2023-04-21T07:01:32.638Z,3.27
2023-04-21T07:02:32.649Z,3.38
2023-04-21T07:03:32.583Z,3.41
2023-04-21T07:04:32.556Z,3.57
2023-04-21T07:05:32.454Z,3.62
2023-04-21T07:06:32.424Z,3.74
2023-04-21T07:07:32.384Z,3.76
2023-04-21T07:08:32.441Z,3.97
2023-04-21T07:09:32.308Z,3.96
2023-04-21T07:10:32.271Z,4.12
2023-04-21T07:11:32.232Z,4.50
2023-04-21T07:12:32.213Z,4.48
2023-04-21T07:13:32.160Z,4.40
2023-04-21T07:14:32.120Z,4.67
2023-04-21T07:15:32.092Z,4.67
2023-04-21T07:16:32.056Z,4.80
2023-04-21T07:17:32.032Z,4.95
2023-04-21T07:18:31.969Z,4.79
2023-04-21T07:19:31.932Z,4.85
2023-04-21T07:20:31.891Z,4.89
2023-04-21T07:21:31.865Z,4.90
2023-04-21T07:22:31.815Z,4.92
2023-04-21T07:23:31.772Z,5.04
2023-04-21T07:24:31.729Z,5.33
2023-04-21T07:25:31.693Z,5.56
2023-04-21T07:26:31.640Z,5.50
2023-04-21T07:27:31.627Z,5.42
2023-04-21T07:28:31.563Z,5.52
2023-04-21T07:29:31.518Z,5.82
2023-04-21T07:30:31.472Z,5.70
2023-04-21T07:31:31.447Z,6.56
2023-04-21T07:32:31.446Z,6.39
2023-04-21T07:33:31.341Z,6.41
2023-04-21T07:34:32.245Z,6.38
2023-04-21T07:35:31.256Z,6.52
2023-04-21T07:36:31.329Z,6.83
2023-04-21T07:37:31.211Z,6.65
2023-04-21T07:38:31.213Z,6.88
2023-04-21T07:39:31.236Z,7.34
2023-04-21T07:40:31.269Z,6.92
2023-04-21T07:41:31.298Z,7.04
2023-04-21T07:42:31.326Z,7.46
2023-04-21T07:43:31.359Z,8.22
2023-04-21T07:44:32.285Z,7.82
2023-04-21T07:45:31.415Z,7.94
2023-04-21T07:46:31.477Z,6.23
2023-04-21T07:47:31.481Z,2.90
2023-04-21T07:48:31.419Z,2.05
2023-04-21T07:49:31.371Z,1.59
2023-04-21T07:50:31.330Z,1.59
2023-04-21T07:51:31.297Z,1.62
2023-04-21T07:52:31.267Z,1.65
2023-04-21T07:53:31.307Z,1.79
2023-04-21T07:54:31.814Z,2.05
2023-04-21T07:55:31.130Z,2.01
2023-04-21T07:56:31.078Z,2.19
2023-04-21T07:57:31.052Z,2.17
2023-04-21T07:58:31.000Z,2.37
2023-04-21T07:59:32.753Z,2.40
2023-04-21T08:00:30.912Z,2.42
2023-04-21T08:01:30.850Z,2.44
2023-04-21T08:02:31.388Z,2.37
2023-04-21T08:03:31.830Z,2.37
2023-04-21T08:04:30.921Z,2.39
2023-04-21T08:05:33.423Z,2.37
2023-04-21T08:06:30.883Z,2.38
2023-04-21T08:07:30.594Z,2.40
2023-04-21T08:08:31.946Z,2.44
2023-04-21T08:09:30.479Z,2.46
2023-04-21T08:10:30.431Z,2.63
2023-04-21T08:11:30.408Z,2.26
2023-04-21T08:12:30.320Z,2.03
2023-04-21T08:13:30.278Z,2.25
2023-04-21T08:14:30.256Z,2.29
2023-04-21T08:15:30.241Z,1.58
2023-04-21T08:16:30.162Z,0.79
2023-04-21T08:17:30.161Z,0.62
2023-04-21T08:18:30.063Z,0.61
2023-04-21T08:19:30.040Z,0.70
2023-04-21T08:20:30.040Z,0.74
2023-04-21T08:21:31.378Z,0.70
2023-04-21T08:22:30.783Z,0.65
2023-04-21T08:23:32.274Z,0.68
2023-04-21T08:24:30.028Z,0.70
2023-04-21T08:25:30.044Z,0.71
2023-04-21T08:26:30.016Z,0.71
2023-04-21T08:27:29.977Z,0.73
2023-04-21T08:28:29.970Z,0.73
2023-04-21T08:29:30.752Z,0.74
2023-04-21T08:30:30.749Z,0.75
2023-04-21T08:31:29.967Z,0.76
2023-04-21T08:32:30.210Z,0.75
2023-04-21T08:33:29.933Z,0.76
2023-04-21T08:34:30.028Z,0.76
2023-04-21T08:35:30.780Z,0.76
2023-04-21T08:36:30.604Z,0.76
2023-04-21T08:37:29.945Z,0.76
2023-04-21T08:38:29.960Z,0.76
2023-04-21T08:39:29.896Z,0.77
2023-04-21T08:40:29.946Z,0.77
2023-04-21T08:41:29.898Z,0.77
2023-04-21T08:42:29.911Z,0.76
2023-04-21T08:43:29.898Z,0.76
2023-04-21T08:44:29.900Z,0.76
2023-04-21T08:45:29.921Z,0.76
2023-04-21T08:46:30.000Z,0.76
2023-04-21T08:47:29.937Z,0.77
2023-04-21T08:48:29.914Z,0.76
2023-04-21T08:49:30.894Z,0.76
2023-04-21T08:50:29.878Z,0.77
2023-04-21T08:51:29.865Z,0.77
2023-04-21T08:52:29.836Z,0.77
2023-04-21T08:53:29.806Z,0.77
2023-04-21T08:54:30.177Z,0.77
2023-04-21T08:55:29.736Z,0.77
2023-04-21T08:56:29.711Z,0.77
2023-04-21T08:57:29.685Z,0.77
2023-04-21T08:58:29.652Z,0.76
2023-04-21T08:59:29.642Z,0.77
2023-04-21T09:00:29.629Z,0.76
2023-04-21T09:01:29.601Z,0.77
2023-04-21T09:02:29.677Z,0.77
2023-04-21T09:03:29.742Z,0.77
2023-04-21T09:04:29.694Z,0.77
2023-04-21T09:05:29.752Z,0.76
2023-04-21T09:06:29.577Z,0.76
2023-04-21T09:07:29.537Z,0.76
2023-04-21T09:08:29.545Z,0.77
2023-04-21T09:09:29.569Z,0.77
2023-04-21T09:10:29.579Z,0.76
2023-04-21T09:11:29.599Z,0.77
2023-04-21T09:12:29.625Z,0.76
2023-04-21T09:13:29.639Z,0.78
2023-04-21T09:14:29.657Z,0.80
2023-04-21T09:15:29.671Z,0.80
2023-04-21T09:16:29.808Z,0.82
2023-04-21T09:17:29.732Z,0.82
2023-04-21T09:18:29.720Z,0.82
2023-04-21T09:19:29.732Z,0.83
2023-04-21T09:20:29.730Z,0.80
2023-04-21T09:21:32.093Z,0.81
2023-04-21T09:22:29.841Z,0.82
2023-04-21T09:23:29.833Z,0.82
2023-04-21T09:24:29.845Z,0.82
2023-04-21T09:25:29.860Z,0.82
2023-04-21T09:26:29.867Z,0.82
2023-04-21T09:27:29.876Z,0.83
2023-04-21T09:28:29.870Z,0.83
2023-04-21T09:29:29.864Z,0.81
2023-04-21T09:30:29.876Z,0.82
2023-04-21T09:31:29.983Z,0.82
2023-04-21T09:32:29.883Z,0.82
2023-04-21T09:33:34.515Z,0.84
2023-04-21T09:34:30.824Z,0.84
2023-04-21T09:35:29.802Z,0.85
2023-04-21T09:36:30.103Z,0.85
2023-04-21T09:37:29.757Z,0.88
2023-04-21T09:38:30.082Z,0.90
2023-04-21T09:39:43.169Z,0.90
2023-04-21T09:40:30.667Z,0.90
2023-04-21T09:41:29.685Z,0.90
2023-04-21T09:42:29.623Z,0.91
2023-04-21T09:43:29.596Z,0.93
2023-04-21T09:44:31.929Z,0.96
2023-04-21T09:45:39.580Z,0.90
2023-04-21T09:46:30.542Z,0.90
2023-04-21T09:47:30.226Z,0.92
2023-04-21T09:48:29.458Z,0.95
2023-04-21T09:49:29.404Z,0.99
2023-04-21T09:51:42.840Z,0.90
2023-04-21T09:52:31.215Z,0.91
2023-04-21T09:53:29.295Z,0.93
2023-04-21T09:54:30.311Z,0.98
2023-04-21T09:55:29.729Z,1.04
2023-04-21T09:56:29.195Z,1.13
2023-04-21T09:57:29.166Z,1.18
2023-04-21T09:58:29.141Z,1.19
2023-04-21T09:59:29.125Z,1.22
2023-04-21T10:00:29.053Z,1.23
2023-04-21T10:01:29.053Z,1.21
2023-04-21T10:02:29.297Z,1.24
2023-04-21T10:03:29.115Z,1.24
2023-04-21T10:04:29.770Z,1.27
2023-04-21T10:05:28.981Z,1.28
2023-04-21T10:06:28.865Z,1.30
2023-04-21T10:07:28.936Z,1.32
2023-04-21T10:08:28.797Z,1.31
2023-04-21T10:09:28.757Z,1.35
2023-04-21T10:10:28.718Z,1.38
2023-04-21T10:11:28.696Z,1.37
2023-04-21T10:12:28.655Z,1.39
2023-04-21T10:13:28.625Z,1.35
2023-04-21T10:14:28.571Z,1.38
2023-04-21T10:15:28.547Z,1.32
2023-04-21T10:16:28.537Z,0.65
2023-04-21T10:17:28.476Z,0.36
2023-04-21T10:18:28.453Z,0.37
2023-04-21T10:19:28.461Z,0.34
2023-04-21T10:20:28.395Z,0.34
2023-04-21T10:21:28.359Z,0.34
2023-04-21T10:22:28.342Z,0.34
2023-04-21T10:23:29.299Z,0.43
2023-04-21T10:24:28.331Z,0.50
2023-04-21T10:25:28.381Z,0.34
2023-04-21T10:26:35.306Z,0.84
2023-04-21T10:27:29.391Z,0.84
2023-04-21T10:28:28.366Z,0.45
2023-04-21T10:29:28.582Z,0.34
2023-04-21T10:30:28.371Z,0.34
2023-04-21T10:31:28.326Z,0.38
2023-04-21T10:32:28.303Z,0.48
2023-04-21T10:33:28.251Z,0.48
2023-04-21T10:34:28.212Z,0.43
2023-04-21T10:35:28.193Z,0.39
2023-04-21T10:36:28.172Z,0.48
2023-04-21T10:37:28.149Z,0.61
2023-04-21T10:38:28.120Z,0.66
2023-04-21T10:39:28.106Z,0.99
2023-04-21T10:40:42.568Z,0.76
2023-04-21T10:41:29.064Z,0.67
2023-04-21T10:42:28.046Z,0.64
2023-04-21T10:43:28.017Z,0.72
2023-04-21T10:44:27.980Z,0.64
2023-04-21T10:45:27.963Z,0.67
2023-04-21T10:46:27.961Z,0.64
2023-04-21T10:47:27.946Z,0.53
2023-04-21T10:48:27.880Z,0.61
2023-04-21T10:49:27.861Z,0.52
2023-04-21T10:50:27.872Z,0.51
2023-04-21T10:51:27.810Z,1.28
2023-04-21T10:52:27.795Z,0.70
2023-04-21T10:53:27.767Z,0.52
2023-04-21T10:54:27.736Z,0.48
2023-04-21T10:55:27.768Z,0.50
2023-04-21T10:56:27.783Z,0.50
2023-04-21T10:57:27.822Z,0.50
2023-04-21T10:58:27.859Z,0.52
2023-04-21T10:59:27.895Z,0.59
2023-04-21T11:00:27.915Z,0.81
2023-04-21T11:01:27.981Z,1.04
2023-04-21T11:02:28.102Z,1.16
2023-04-21T11:03:28.116Z,1.44
2023-04-21T11:04:28.560Z,1.68
2023-04-21T11:05:28.001Z,1.81
2023-04-21T11:06:27.997Z,1.86
2023-04-21T11:07:28.005Z,1.90
2023-04-21T11:08:28.017Z,1.91
2023-04-21T11:09:28.017Z,1.95
2023-04-21T11:10:28.035Z,2.04
2023-04-21T11:11:28.022Z,2.06
2023-04-21T11:12:28.032Z,2.13
2023-04-21T11:13:28.016Z,2.17
2023-04-21T11:14:28.009Z,2.19
2023-04-21T11:15:28.003Z,2.27
2023-04-21T11:16:28.034Z,2.37
2023-04-21T11:17:28.033Z,2.42
2023-04-21T11:18:27.993Z,2.48
2023-04-21T11:19:27.980Z,2.51
2023-04-21T11:20:27.969Z,2.55
2023-04-21T11:21:27.965Z,2.62
2023-04-21T11:22:27.954Z,2.66
2023-04-21T11:23:27.954Z,2.66
2023-04-21T11:24:27.953Z,2.69
2023-04-21T11:25:27.937Z,2.74
2023-04-21T11:26:27.932Z,2.79
2023-04-21T11:27:27.929Z,2.87
2023-04-21T11:28:27.916Z,2.85
2023-04-21T11:29:27.905Z,2.90
2023-04-21T11:30:27.898Z,2.98
2023-04-21T11:31:27.918Z,3.00
2023-04-21T11:32:27.917Z,2.99
2023-04-21T11:33:27.878Z,3.07
2023-04-21T11:34:27.871Z,3.07
2023-04-21T11:35:27.866Z,3.09
2023-04-21T11:36:27.877Z,3.17
2023-04-21T11:37:28.023Z,3.15
2023-04-21T11:38:27.857Z,3.22
2023-04-21T11:39:27.847Z,3.24
2023-04-21T11:40:27.855Z,3.26
2023-04-21T11:41:27.844Z,3.27
2023-04-21T11:42:27.838Z,3.30
2023-04-21T11:43:27.829Z,3.34
2023-04-21T11:44:27.822Z,3.42
2023-04-21T11:45:27.830Z,3.38
2023-04-21T11:46:27.828Z,3.37
2023-04-21T11:47:27.870Z,3.47
2023-04-21T11:48:27.806Z,3.42
2023-04-21T11:49:27.808Z,3.47
2023-04-21T11:50:27.793Z,3.37
2023-04-21T11:51:27.793Z,3.45
2023-04-21T11:52:27.784Z,3.46
2023-04-21T11:53:27.797Z,3.52
2023-04-21T11:54:27.809Z,3.52
2023-04-21T11:55:27.791Z,3.53
2023-04-21T11:56:27.789Z,3.49
2023-04-21T11:57:27.792Z,3.56
2023-04-21T11:58:27.790Z,3.55
2023-04-21T11:59:27.791Z,3.49
2023-04-21T12:00:27.788Z,3.62
2023-04-21T12:01:27.793Z,3.62
2023-04-21T12:02:27.898Z,3.61
2023-04-21T12:03:27.895Z,3.55
2023-04-21T12:04:28.030Z,3.65
2023-04-21T12:05:27.807Z,3.67
2023-04-21T12:06:27.851Z,3.65
2023-04-21T12:07:27.809Z,3.68
2023-04-21T12:08:27.814Z,3.67
2023-04-21T12:09:27.816Z,3.67
2023-04-21T12:10:27.823Z,3.61
2023-04-21T12:11:27.840Z,3.66
2023-04-21T12:12:27.846Z,3.67
2023-04-21T12:13:27.891Z,3.67
2023-04-21T12:14:27.866Z,3.71
2023-04-21T12:15:27.869Z,3.74
2023-04-21T12:16:27.912Z,3.70
2023-04-21T12:17:27.909Z,3.76
2023-04-21T12:18:27.897Z,3.72
2023-04-21T12:19:27.876Z,3.74
2023-04-21T12:20:27.836Z,3.70
2023-04-21T12:21:27.818Z,3.76
2023-04-21T12:22:27.805Z,3.75
2023-04-21T12:23:27.816Z,3.78
2023-04-21T12:24:27.813Z,3.76
2023-04-21T12:25:27.826Z,3.77
2023-04-21T12:26:27.821Z,3.75
2023-04-21T12:27:27.826Z,3.77
2023-04-21T12:28:27.811Z,3.76
2023-04-21T12:29:27.818Z,3.79
2023-04-21T12:30:27.855Z,3.75
2023-04-21T12:31:27.897Z,3.83
2023-04-21T12:32:27.901Z,3.84
2023-04-21T12:33:27.948Z,3.78
2023-04-21T12:34:27.848Z,3.82
2023-04-21T12:35:27.846Z,3.87
2023-04-21T12:36:27.870Z,3.82
2023-04-21T12:37:27.866Z,3.80
2023-04-21T12:38:27.877Z,3.80
2023-04-21T12:39:28.245Z,3.81
2023-04-21T12:40:27.898Z,3.87
2023-04-21T12:41:27.907Z,3.87
2023-04-21T12:42:27.924Z,3.87
2023-04-21T12:43:27.941Z,3.83
2023-04-21T12:44:27.941Z,3.86
2023-04-21T12:45:27.980Z,3.87
2023-04-21T12:46:28.046Z,3.84
2023-04-21T12:47:27.971Z,3.87
2023-04-21T12:48:27.970Z,3.87
2023-04-21T12:49:28.192Z,3.88
2023-04-21T12:50:27.993Z,3.91
2023-04-21T12:51:27.994Z,3.90
2023-04-21T12:52:28.004Z,3.88
2023-04-21T12:53:30.585Z,3.89
2023-04-21T12:54:27.957Z,3.97
2023-04-21T12:55:27.934Z,3.95
2023-04-21T12:56:27.919Z,3.90
2023-04-21T12:57:27.862Z,3.91
2023-04-21T12:58:27.843Z,3.92
2023-04-21T12:59:27.904Z,3.93
2023-04-21T13:00:27.760Z,3.91
2023-04-21T13:01:27.848Z,3.90
2023-04-21T13:02:27.817Z,3.94
2023-04-21T13:03:27.788Z,3.93
2023-04-21T13:04:27.872Z,3.96
2023-04-21T13:05:27.585Z,3.95
2023-04-21T13:06:27.555Z,3.94
2023-04-21T13:07:27.521Z,3.93
2023-04-21T13:08:27.503Z,3.95
2023-04-21T13:09:27.465Z,3.96
2023-04-21T13:10:27.437Z,3.95
2023-04-21T13:11:27.406Z,3.98
2023-04-21T13:12:27.374Z,4.00
2023-04-21T13:13:27.346Z,3.95
2023-04-21T13:14:27.309Z,3.95
2023-04-21T13:15:27.281Z,3.95
2023-04-21T13:16:29.928Z,3.96
2023-04-21T13:17:27.225Z,3.97
2023-04-21T13:18:27.208Z,3.98
2023-04-21T13:19:27.208Z,3.98
2023-04-21T13:20:27.161Z,4.00